Time;durP1;ratioP1;P1;durP2;ratioP2;P2;SDS_P1;SDS_P2;PMS_P1;PMS_P2;Temp;Humidity;BMP_temperature;BMP_pressure;BME280_temperature;BME280_humidity;BME280_pressure;Samples;Min_cycle;Max_cycle;Signal;HPM_P1;HPM_P2
2023/10/24 00:01:35;;;;;;;5.97;4.07;;;12.60;99.90;;;;;;4965188;28;20593;-73
2023/10/24 00:04:01;;;;;;;4.37;3.97;;;12.60;99.90;;;;;;4964097;28;20333;-74
2023/10/24 00:06:27;;;;;;;6.03;4.60;;;12.60;99.90;;;;;;4978880;28;20233;-76
2023/10/24 00:08:52;;;;;;;6.03;5.17;;;12.60;99.90;;;;;;4965693;28;20888;-74
2023/10/24 00:11:18;;;;;;;7.23;4.60;;;12.60;99.90;;;;;;4963268;28;20284;-75
2023/10/24 00:13:44;;;;;;;5.97;4.70;;;12.50;99.90;;;;;;4956786;28;20284;-74
2023/10/24 00:16:09;;;;;;;5.13;4.63;;;12.50;99.90;;;;;;4963108;28;20679;-73
2023/10/24 00:18:35;;;;;;;5.70;4.80;;;12.50;99.90;;;;;;4973101;28;20222;-75
2023/10/24 00:21:01;;;;;;;7.60;5.03;;;12.50;99.90;;;;;;4964246;28;20224;-74
2023/10/24 00:23:29;;;;;;;5.70;4.97;;;12.50;99.90;;;;;;4964822;28;20225;-75
2023/10/24 00:25:54;;;;;;;5.50;4.70;;;12.50;99.90;;;;;;4963398;28;20272;-74
2023/10/24 00:28:20;;;;;;;5.40;4.90;;;12.50;99.90;;;;;;4965203;28;20991;-75
2023/10/24 00:30:46;;;;;;;5.80;4.67;;;12.50;99.90;;;;;;4966521;28;20248;-74
2023/10/24 00:33:11;;;;;;;7.40;3.90;;;12.50;99.90;;;;;;4948628;28;20225;-73
2023/10/24 00:35:37;;;;;;;4.37;3.93;;;12.50;99.90;;;;;;4958157;28;20233;-74
2023/10/24 00:38:03;;;;;;;4.67;3.87;;;12.60;99.90;;;;;;4966214;28;20285;-73
2023/10/24 00:40:28;;;;;;;4.03;3.63;;;12.50;99.90;;;;;;4966684;28;20284;-75
2023/10/24 00:42:54;;;;;;;3.87;3.47;;;12.50;99.90;;;;;;4978043;28;20252;-73
2023/10/24 00:45:20;;;;;;;4.50;3.50;;;12.60;99.90;;;;;;4977450;28;20234;-74
2023/10/24 00:47:46;;;;;;;4.63;4.17;;;12.60;99.90;;;;;;4946051;28;20806;-74
2023/10/24 00:50:13;;;;;;;4.67;3.70;;;12.60;99.90;;;;;;4946822;28;20769;-75
2023/10/24 00:52:42;;;;;;;4.50;3.90;;;12.60;99.90;;;;;;4977899;28;20481;-75
2023/10/24 00:55:08;;;;;;;4.47;3.57;;;12.60;99.90;;;;;;4993849;28;21006;-75
2023/10/24 00:57:35;;;;;;;3.60;3.20;;;12.60;99.90;;;;;;4965848;28;20485;-75
2023/10/24 01:00:01;;;;;;;5.50;3.70;;;12.60;99.90;;;;;;4966626;28;21087;-73
2023/10/24 01:02:26;;;;;;;4.30;3.90;;;12.60;99.90;;;;;;4964178;28;20539;-74
2023/10/24 01:04:57;;;;;;;4.47;3.27;;;12.60;99.90;;;;;;4962794;28;20580;-75
2023/10/24 01:07:23;;;;;;;5.43;4.30;;;12.60;99.90;;;;;;4973814;28;20226;-75
2023/10/24 01:09:49;;;;;;;3.93;3.20;;;12.60;99.90;;;;;;4964360;28;20473;-74
2023/10/24 01:12:15;;;;;;;4.10;3.50;;;12.60;99.90;;;;;;4979718;28;20312;-74
2023/10/24 01:14:40;;;;;;;3.83;3.23;;;12.60;99.90;;;;;;4963845;28;20245;-75
2023/10/24 01:17:13;;;;;;;5.07;4.57;;;12.60;99.90;;;;;;4955358;28;20229;-74
2023/10/24 01:19:39;;;;;;;4.77;3.83;;;12.60;99.90;;;;;;4969478;28;20252;-75
2023/10/24 01:22:05;;;;;;;5.70;4.00;;;12.60;99.90;;;;;;4958851;28;20615;-74
2023/10/24 01:24:31;;;;;;;4.03;3.60;;;12.60;99.90;;;;;;4974525;28;21113;-74
2023/10/24 01:26:57;;;;;;;3.80;3.37;;;12.60;99.90;;;;;;4955505;28;20378;-74
2023/10/24 01:29:23;;;;;;;4.27;3.93;;;12.60;99.90;;;;;;4945364;28;20472;-74
2023/10/24 01:31:49;;;;;;;5.93;4.47;;;12.60;99.90;;;;;;4960211;28;20226;-75
2023/10/24 01:34:15;;;;;;;4.43;3.53;;;12.60;99.90;;;;;;4959665;28;20555;-75
2023/10/24 01:36:41;;;;;;;8.10;3.80;;;12.50;99.90;;;;;;4961348;28;20597;-74
2023/10/24 01:39:07;;;;;;;4.47;3.70;;;12.50;99.90;;;;;;4968633;28;20264;-74
2023/10/24 01:41:34;;;;;;;4.90;4.40;;;12.50;99.90;;;;;;4950808;28;20221;-74
2023/10/24 01:43:59;;;;;;;5.60;4.57;;;12.50;99.90;;;;;;4950023;28;20473;-74
2023/10/24 01:46:25;;;;;;;6.53;4.50;;;12.50;99.90;;;;;;4968852;28;20546;-75
2023/10/24 01:48:51;;;;;;;8.40;5.10;;;12.50;99.90;;;;;;4954683;28;20260;-75
2023/10/24 01:51:19;;;;;;;6.60;4.20;;;12.50;99.90;;;;;;4964107;28;20468;-75
2023/10/24 01:53:46;;;;;;;8.67;4.20;;;12.50;99.90;;;;;;4968582;28;20460;-74
2023/10/24 01:56:12;;;;;;;9.00;4.30;;;12.50;99.90;;;;;;4964529;28;20473;-74
2023/10/24 01:58:38;;;;;;;8.30;4.97;;;12.60;99.90;;;;;;4947787;28;20465;-74
2023/10/24 02:01:06;;;;;;;4.97;4.20;;;12.60;99.90;;;;;;4959470;28;20491;-73
2023/10/24 02:03:32;;;;;;;7.20;3.73;;;12.60;99.90;;;;;;4961594;28;20465;-74
2023/10/24 02:05:59;;;;;;;5.67;4.33;;;12.60;99.90;;;;;;4963375;28;20955;-74
2023/10/24 02:08:25;;;;;;;5.20;3.80;;;12.60;99.90;;;;;;4955061;28;20461;-74
2023/10/24 02:10:50;;;;;;;4.70;3.80;;;12.60;99.90;;;;;;4964751;28;20481;-74
2023/10/24 02:13:17;;;;;;;6.00;4.70;;;12.60;99.90;;;;;;4956929;28;20222;-74
2023/10/24 02:15:42;;;;;;;4.50;3.93;;;12.60;99.90;;;;;;4976706;28;20630;-75
2023/10/24 02:18:08;;;;;;;4.73;4.07;;;12.60;99.90;;;;;;4981622;28;20527;-74
2023/10/24 02:20:34;;;;;;;4.83;4.33;;;12.60;99.90;;;;;;4968337;28;20242;-76
2023/10/24 02:23:00;;;;;;;4.73;3.90;;;12.60;99.90;;;;;;4962421;28;20477;-73
2023/10/24 02:25:25;;;;;;;4.30;3.90;;;12.60;99.90;;;;;;4947791;28;20275;-74
2023/10/24 02:27:52;;;;;;;5.77;3.87;;;12.60;99.90;;;;;;4963286;28;20821;-73
2023/10/24 02:30:18;;;;;;;6.20;3.90;;;12.60;99.90;;;;;;4964163;28;20324;-75
2023/10/24 02:32:44;;;;;;;4.20;3.80;;;12.60;99.90;;;;;;4931025;28;20608;-73
2023/10/24 02:35:09;;;;;;;5.47;4.27;;;12.60;99.90;;;;;;4959136;28;20230;-75
2023/10/24 02:37:36;;;;;;;4.17;3.77;;;12.60;99.90;;;;;;4958953;28;20268;-75
2023/10/24 02:40:02;;;;;;;4.67;4.27;;;12.60;99.90;;;;;;4963319;28;20349;-74
2023/10/24 02:42:28;;;;;;;4.80;3.83;;;12.60;99.90;;;;;;4959252;28;20485;-75
2023/10/24 02:44:54;;;;;;;5.13;3.87;;;12.60;99.90;;;;;;4984696;28;20472;-74
2023/10/24 02:47:20;;;;;;;3.90;3.53;;;12.60;99.90;;;;;;4972090;28;20225;-75
2023/10/24 02:49:45;;;;;;;4.63;3.40;;;12.60;99.90;;;;;;4985029;28;20838;-75
2023/10/24 02:52:11;;;;;;;4.60;3.57;;;12.60;99.90;;;;;;4972201;28;20218;-75
2023/10/24 02:54:37;;;;;;;3.80;3.40;;;12.60;99.90;;;;;;4966122;28;20304;-74
2023/10/24 02:57:03;;;;;;;4.80;4.17;;;12.60;99.90;;;;;;4978806;28;21032;-73
2023/10/24 02:59:29;;;;;;;6.60;4.03;;;12.60;99.90;;;;;;4982338;28;20346;-74
2023/10/24 03:01:55;;;;;;;4.50;4.10;;;12.60;99.90;;;;;;4977994;28;20221;-74
2023/10/24 03:04:20;;;;;;;4.63;3.50;;;12.70;99.90;;;;;;4974170;28;20789;-75
2023/10/24 03:06:46;;;;;;;3.83;3.40;;;12.70;99.90;;;;;;4977395;28;20276;-73
2023/10/24 03:09:12;;;;;;;3.87;3.00;;;12.70;99.90;;;;;;4982948;28;20242;-74
2023/10/24 03:11:37;;;;;;;5.87;3.27;;;12.70;99.90;;;;;;4962669;28;20249;-74
2023/10/24 03:14:03;;;;;;;3.50;3.20;;;12.70;99.90;;;;;;4952285;28;20283;-73
2023/10/24 03:16:29;;;;;;;3.90;3.50;;;12.70;99.90;;;;;;4957259;28;20222;-74
2023/10/24 03:18:56;;;;;;;3.27;2.57;;;12.70;99.90;;;;;;4958290;28;20223;-75
2023/10/24 03:21:21;;;;;;;3.63;3.33;;;12.70;99.90;;;;;;4961488;28;20230;-73
2023/10/24 03:23:47;;;;;;;3.70;3.23;;;12.70;99.90;;;;;;4942675;28;20509;-74
2023/10/24 03:26:13;;;;;;;3.80;3.20;;;12.70;99.90;;;;;;4963522;28;20229;-71
2023/10/24 03:28:40;;;;;;;5.30;3.10;;;12.70;99.90;;;;;;4944280;28;20940;-73
2023/10/24 03:31:07;;;;;;;4.40;3.63;;;12.70;99.90;;;;;;4983182;28;20480;-74
2023/10/24 03:33:35;;;;;;;6.20;3.83;;;12.70;99.90;;;;;;4964676;28;20357;-74
2023/10/24 03:36:01;;;;;;;4.30;3.90;;;12.70;99.90;;;;;;4962910;28;20492;-74
2023/10/24 03:38:27;;;;;;;7.80;3.47;;;12.70;99.90;;;;;;4959042;28;21096;-74
2023/10/24 03:40:54;;;;;;;4.17;3.40;;;12.70;99.90;;;;;;4979347;28;20289;-74
2023/10/24 03:43:20;;;;;;;4.20;3.53;;;12.70;99.90;;;;;;4970485;28;20473;-75
2023/10/24 03:45:45;;;;;;;4.13;3.60;;;12.70;99.90;;;;;;4969258;28;21249;-74
2023/10/24 03:48:12;;;;;;;5.90;3.83;;;12.70;99.90;;;;;;4965705;28;20485;-73
2023/10/24 03:50:38;;;;;;;3.43;3.07;;;12.70;99.90;;;;;;4962046;28;20234;-74
2023/10/24 03:53:04;;;;;;;4.03;3.70;;;12.70;99.90;;;;;;4960691;28;20476;-74
2023/10/24 03:55:31;;;;;;;4.00;3.60;;;12.70;99.90;;;;;;4974679;28;21136;-74
2023/10/24 03:57:57;;;;;;;8.40;4.97;;;12.70;99.90;;;;;;4965463;28;20484;-74
2023/10/24 04:00:23;;;;;;;8.03;5.40;;;12.70;99.90;;;;;;4961927;28;20465;-75
2023/10/24 04:02:55;;;;;;;6.10;5.50;;;12.70;99.90;;;;;;4956929;28;20225;-74
2023/10/24 04:05:21;;;;;;;7.27;5.07;;;12.70;99.90;;;;;;4948774;28;20482;-73
2023/10/24 04:07:47;;;;;;;7.67;5.90;;;12.70;99.90;;;;;;4948527;28;20480;-73
2023/10/24 04:10:14;;;;;;;7.53;5.90;;;12.70;99.90;;;;;;4966504;28;20483;-75
2023/10/24 04:12:40;;;;;;;7.33;5.27;;;12.70;99.90;;;;;;4959384;28;20229;-75
2023/10/24 04:15:08;;;;;;;13.13;6.23;;;12.70;99.90;;;;;;4961436;28;20468;-75
2023/10/24 04:17:35;;;;;;;6.77;5.70;;;12.70;99.90;;;;;;4963790;28;20469;-74
2023/10/24 04:20:01;;;;;;;6.90;5.73;;;12.70;99.90;;;;;;4942619;28;20468;-74
2023/10/24 04:22:27;;;;;;;5.43;4.90;;;12.70;99.90;;;;;;4959725;28;20477;-74
2023/10/24 04:24:53;;;;;;;6.13;5.10;;;12.70;99.90;;;;;;4963600;28;20480;-74
2023/10/24 04:27:19;;;;;;;6.40;4.10;;;12.70;99.90;;;;;;4958434;28;20263;-74
2023/10/24 04:29:46;;;;;;;6.60;5.00;;;12.70;99.90;;;;;;4975426;28;20221;-74
2023/10/24 04:32:12;;;;;;;5.00;4.50;;;12.70;99.90;;;;;;4977431;28;21217;-74
2023/10/24 04:34:38;;;;;;;7.00;4.60;;;12.70;99.90;;;;;;4967683;28;20473;-75
2023/10/24 04:37:04;;;;;;;4.17;3.70;;;12.70;99.90;;;;;;4960180;28;20503;-75
2023/10/24 04:39:30;;;;;;;5.87;4.43;;;12.70;99.90;;;;;;4960411;28;20222;-74
2023/10/24 04:41:56;;;;;;;6.40;4.27;;;12.60;99.90;;;;;;4957600;28;21038;-74
2023/10/24 04:44:22;;;;;;;4.30;3.90;;;12.70;99.90;;;;;;4961296;28;20253;-74
2023/10/24 04:46:47;;;;;;;5.20;3.93;;;12.60;99.90;;;;;;4953081;28;20228;-74
2023/10/24 04:49:15;;;;;;;5.27;3.50;;;12.60;99.90;;;;;;4970930;28;20920;-76
2023/10/24 04:51:41;;;;;;;6.03;3.90;;;12.60;99.90;;;;;;4954799;28;20229;-73
2023/10/24 04:54:07;;;;;;;4.90;3.87;;;12.60;99.90;;;;;;4942889;28;20818;-75
2023/10/24 04:56:33;;;;;;;4.40;3.83;;;12.70;99.90;;;;;;4960275;28;20473;-74
2023/10/24 04:58:58;;;;;;;4.53;3.80;;;12.70;99.90;;;;;;4946036;28;20301;-73
2023/10/24 05:01:24;;;;;;;4.73;3.70;;;12.60;99.90;;;;;;4947707;28;20250;-73
2023/10/24 05:03:50;;;;;;;5.00;4.17;;;12.70;99.90;;;;;;4944963;28;20337;-74
2023/10/24 05:06:15;;;;;;;5.87;5.10;;;12.70;99.90;;;;;;4931897;28;20434;-74
2023/10/24 05:08:41;;;;;;;7.97;3.80;;;12.60;99.90;;;;;;4943539;28;20242;-74
2023/10/24 05:11:07;;;;;;;5.13;4.00;;;12.60;99.90;;;;;;4978552;28;20235;-75
2023/10/24 05:13:33;;;;;;;6.53;4.87;;;12.60;99.90;;;;;;4948611;28;20233;-74
2023/10/24 05:15:59;;;;;;;6.60;5.57;;;12.60;99.90;;;;;;4944256;28;20478;-74
2023/10/24 05:18:25;;;;;;;5.10;4.60;;;12.60;99.90;;;;;;4944262;28;20949;-74
2023/10/24 05:20:50;;;;;;;5.80;4.40;;;12.60;99.90;;;;;;4958888;28;20484;-73
2023/10/24 05:23:16;;;;;;;8.23;5.40;;;12.60;99.90;;;;;;4945077;28;20234;-73
2023/10/24 05:25:42;;;;;;;14.97;8.40;;;12.60;99.90;;;;;;4926384;28;20217;-74
2023/10/24 05:28:08;;;;;;;21.07;10.33;;;12.60;99.90;;;;;;4978571;28;20277;-74
2023/10/24 05:30:39;;;;;;;19.33;11.87;;;12.60;99.90;;;;;;4947781;28;20491;-75
2023/10/24 05:33:06;;;;;;;24.03;11.80;;;12.60;99.90;;;;;;4979936;28;20472;-73
2023/10/24 05:35:32;;;;;;;20.70;10.70;;;12.60;99.90;;;;;;4976700;28;20476;-73
2023/10/24 05:37:58;;;;;;;17.57;9.87;;;12.60;99.90;;;;;;4973396;28;20477;-74
2023/10/24 05:40:24;;;;;;;11.30;7.60;;;12.60;99.90;;;;;;4977037;28;20484;-74
2023/10/24 05:42:51;;;;;;;8.13;5.30;;;12.50;99.90;;;;;;4973276;28;20483;-74
2023/10/24 05:45:17;;;;;;;9.73;6.10;;;12.50;99.90;;;;;;4969363;28;20221;-75
2023/10/24 05:47:42;;;;;;;5.40;4.50;;;12.50;99.90;;;;;;4958189;28;20549;-74
2023/10/24 05:50:09;;;;;;;9.83;4.63;;;12.50;99.90;;;;;;4968805;28;20757;-74
2023/10/24 05:52:35;;;;;;;6.70;4.90;;;12.40;99.90;;;;;;4969053;28;20283;-73
2023/10/24 05:55:00;;;;;;;4.80;3.93;;;12.50;99.90;;;;;;4957642;28;20468;-73
2023/10/24 05:57:28;;;;;;;4.87;3.50;;;12.40;99.90;;;;;;4954827;28;20787;-74
2023/10/24 05:59:53;;;;;;;5.10;3.87;;;12.40;99.90;;;;;;4973709;28;20451;-72
2023/10/24 06:02:19;;;;;;;4.33;3.73;;;12.40;99.90;;;;;;4962986;28;20476;-73
2023/10/24 06:04:45;;;;;;;3.50;3.07;;;12.40;99.90;;;;;;4955341;28;20734;-72
2023/10/24 06:07:11;;;;;;;3.83;2.80;;;12.50;99.90;;;;;;4939133;28;20796;-73
2023/10/24 06:09:36;;;;;;;6.63;3.23;;;12.40;99.90;;;;;;4956482;28;20230;-72
2023/10/24 06:12:02;;;;;;;4.90;2.60;;;12.50;99.90;;;;;;4939577;28;20303;-72
2023/10/24 06:14:28;;;;;;;3.33;3.03;;;12.40;99.90;;;;;;4963988;28;20226;-73
2023/10/24 06:16:54;;;;;;;3.13;2.80;;;12.40;99.90;;;;;;4965732;28;20230;-72
2023/10/24 06:19:20;;;;;;;3.40;2.60;;;12.50;99.90;;;;;;4968385;28;20229;-73
2023/10/24 06:21:46;;;;;;;2.97;2.67;;;12.50;99.90;;;;;;4979669;28;20554;-73
2023/10/24 06:24:12;;;;;;;2.77;2.53;;;12.40;99.90;;;;;;4963960;28;20344;-74
2023/10/24 06:26:37;;;;;;;2.90;2.37;;;12.50;99.90;;;;;;4962301;28;20229;-73
2023/10/24 06:29:03;;;;;;;5.73;3.23;;;12.40;99.90;;;;;;4963067;28;20996;-73
2023/10/24 06:31:29;;;;;;;7.23;2.90;;;12.40;99.90;;;;;;4966827;28;20348;-74
2023/10/24 06:33:54;;;;;;;5.83;3.20;;;12.40;99.90;;;;;;4961527;28;20222;-72
2023/10/24 06:36:21;;;;;;;3.70;2.97;;;12.40;99.90;;;;;;4947494;28;20219;-74
2023/10/24 06:38:47;;;;;;;4.07;3.67;;;12.40;99.90;;;;;;4944888;28;20269;-72
2023/10/24 06:41:13;;;;;;;3.47;3.17;;;12.30;99.90;;;;;;4963691;28;20459;-74
2023/10/24 06:43:39;;;;;;;3.53;3.17;;;12.40;99.90;;;;;;4946116;28;20219;-73
2023/10/24 06:46:05;;;;;;;5.50;3.13;;;12.40;99.90;;;;;;4956997;28;20580;-74
2023/10/24 06:48:31;;;;;;;3.80;3.40;;;12.40;99.90;;;;;;4964366;28;20481;-72
2023/10/24 06:50:58;;;;;;;3.40;3.10;;;12.40;99.90;;;;;;4953287;28;20607;-72
2023/10/24 06:53:24;;;;;;;4.90;2.90;;;12.40;99.90;;;;;;4953952;28;20474;-73
2023/10/24 06:55:50;;;;;;;3.77;3.40;;;12.40;99.90;;;;;;4943856;28;20480;-72
2023/10/24 06:58:15;;;;;;;4.40;3.50;;;12.40;99.90;;;;;;4947920;28;20884;-73
2023/10/24 07:00:42;;;;;;;4.83;3.20;;;12.40;99.90;;;;;;4949605;28;20876;-72
2023/10/24 07:03:08;;;;;;;3.83;3.03;;;12.40;99.90;;;;;;4955099;28;20229;-73
2023/10/24 07:05:34;;;;;;;4.23;3.83;;;12.40;99.90;;;;;;4951134;28;21121;-73
2023/10/24 07:07:59;;;;;;;3.73;3.40;;;12.30;99.90;;;;;;4945551;28;20230;-72
2023/10/24 07:10:25;;;;;;;4.17;3.77;;;12.30;99.90;;;;;;4962787;28;20241;-71
2023/10/24 07:12:51;;;;;;;4.73;3.90;;;12.40;99.90;;;;;;4945634;28;20222;-73
2023/10/24 07:15:17;;;;;;;3.60;3.30;;;12.40;99.90;;;;;;4975441;28;20225;-73
2023/10/24 07:17:42;;;;;;;8.00;4.37;;;12.40;99.90;;;;;;4956445;28;20217;-71
2023/10/24 07:20:09;;;;;;;4.57;4.00;;;12.30;99.90;;;;;;4967198;28;20272;-73
2023/10/24 07:22:34;;;;;;;5.43;3.80;;;12.40;99.90;;;;;;4958162;28;20221;-73
2023/10/24 07:25:00;;;;;;;4.30;3.90;;;12.40;99.90;;;;;;4966953;28;20589;-73
2023/10/24 07:27:26;;;;;;;4.90;3.73;;;12.40;99.90;;;;;;4955323;28;20837;-72
2023/10/24 07:29:51;;;;;;;5.07;3.80;;;12.40;99.90;;;;;;4953487;28;20845;-73
2023/10/24 07:32:18;;;;;;;4.13;3.73;;;12.40;99.90;;;;;;4962020;28;20225;-73
2023/10/24 07:34:44;;;;;;;4.80;4.30;;;12.40;99.90;;;;;;4965383;28;20381;-73
2023/10/24 07:37:09;;;;;;;5.53;4.30;;;12.40;99.90;;;;;;4961677;28;20983;-73
2023/10/24 07:39:36;;;;;;;4.00;3.60;;;12.40;99.90;;;;;;4982697;28;20314;-72
2023/10/24 07:42:03;;;;;;;4.60;3.27;;;12.40;99.90;;;;;;4970523;28;20230;-72
2023/10/24 07:44:29;;;;;;;3.70;3.40;;;12.40;99.90;;;;;;4965802;28;20558;-74
2023/10/24 07:46:54;;;;;;;5.20;3.90;;;12.40;99.90;;;;;;4974248;28;20472;-73
2023/10/24 07:49:20;;;;;;;3.40;3.10;;;12.40;99.90;;;;;;4964973;28;20231;-71
2023/10/24 07:51:46;;;;;;;3.37;2.80;;;12.40;99.90;;;;;;4963186;28;20258;-74
2023/10/24 07:54:12;;;;;;;4.23;3.20;;;12.40;99.90;;;;;;4968746;28;20217;-74
2023/10/24 07:56:41;;;;;;;5.17;4.20;;;12.50;99.90;;;;;;4973301;28;20820;-72
2023/10/24 07:59:07;;;;;;;5.00;4.40;;;12.40;99.90;;;;;;4966920;28;20563;-73
2023/10/24 08:01:34;;;;;;;5.90;4.30;;;12.50;99.90;;;;;;4971940;28;20535;-73
2023/10/24 08:04:00;;;;;;;4.40;4.00;;;12.40;99.90;;;;;;4985157;28;20450;-73
2023/10/24 08:06:26;;;;;;;4.73;3.83;;;12.50;99.90;;;;;;4995252;28;20504;-71
2023/10/24 08:08:52;;;;;;;5.10;3.57;;;12.50;99.90;;;;;;4965033;28;20219;-72
2023/10/24 08:11:17;;;;;;;4.77;3.57;;;12.50;99.90;;;;;;4968531;28;20800;-72
2023/10/24 08:13:43;;;;;;;3.83;3.53;;;12.50;99.90;;;;;;4965617;28;20700;-74
2023/10/24 08:16:09;;;;;;;4.13;3.73;;;12.50;99.90;;;;;;4949081;28;20837;-73
2023/10/24 08:18:34;;;;;;;3.40;3.10;;;12.50;99.90;;;;;;4979372;28;20365;-73
2023/10/24 08:21:00;;;;;;;3.90;3.50;;;12.50;99.90;;;;;;4973554;28;20289;-73
2023/10/24 08:23:28;;;;;;;3.17;2.90;;;12.50;99.90;;;;;;4973944;28;20257;-74
2023/10/24 08:25:54;;;;;;;3.10;2.87;;;12.50;99.90;;;;;;4975255;28;20291;-73
2023/10/24 08:28:20;;;;;;;4.07;3.27;;;12.50;99.90;;;;;;4991025;28;21038;-73
2023/10/24 08:30:46;;;;;;;4.53;3.30;;;12.50;99.90;;;;;;4973281;28;20722;-73
2023/10/24 08:33:11;;;;;;;3.57;2.80;;;12.50;99.90;;;;;;4979723;28;20225;-74
2023/10/24 08:35:37;;;;;;;3.50;2.77;;;12.50;99.90;;;;;;4982621;28;20226;-73
2023/10/24 08:38:03;;;;;;;4.97;3.67;;;12.50;99.90;;;;;;4963731;28;20265;-73
2023/10/24 08:40:29;;;;;;;5.40;2.57;;;12.50;99.90;;;;;;4948318;28;20235;-71
2023/10/24 08:42:55;;;;;;;3.43;3.00;;;12.50;99.90;;;;;;4963962;28;20509;-73
2023/10/24 08:45:21;;;;;;;2.83;2.13;;;12.60;99.90;;;;;;4964512;28;20465;-72
2023/10/24 08:47:48;;;;;;;4.50;2.80;;;12.60;99.90;;;;;;4948591;28;20234;-72
2023/10/24 08:50:15;;;;;;;3.00;2.67;;;12.60;99.90;;;;;;4965636;28;20241;-73
2023/10/24 08:52:43;;;;;;;3.27;2.97;;;12.60;99.90;;;;;;4963407;28;21267;-73
2023/10/24 08:55:09;;;;;;;2.53;2.10;;;12.60;99.90;;;;;;4955142;28;20496;-74
2023/10/24 08:57:42;;;;;;;3.17;2.87;;;12.60;99.90;;;;;;4966233;28;20481;-71
2023/10/24 09:00:10;;;;;;;2.50;2.17;;;12.60;99.90;;;;;;4984219;28;20236;-73
2023/10/24 09:02:38;;;;;;;3.33;3.03;;;12.60;99.90;;;;;;4984076;28;20479;-74
2023/10/24 09:05:05;;;;;;;3.37;2.47;;;12.60;99.90;;;;;;4974284;28;20481;-74
2023/10/24 09:07:31;;;;;;;2.83;2.57;;;12.60;99.90;;;;;;4991462;28;20493;-74
2023/10/24 09:09:56;;;;;;;4.53;3.20;;;12.70;99.90;;;;;;4960177;28;21220;-72
2023/10/24 09:12:23;;;;;;;3.50;3.20;;;12.70;99.90;;;;;;4948336;28;20862;-72
2023/10/24 09:14:49;;;;;;;9.03;4.77;;;12.70;99.90;;;;;;4964996;28;20226;-72
2023/10/24 09:17:15;;;;;;;7.00;5.47;;;12.70;99.90;;;;;;4963640;28;20504;-74
2023/10/24 09:19:41;;;;;;;5.80;5.20;;;12.70;99.90;;;;;;4963378;28;20257;-74
2023/10/24 09:22:14;;;;;;;4.90;4.50;;;12.70;99.90;;;;;;4965811;28;20507;-74
2023/10/24 09:24:47;;;;;;;6.00;5.13;;;12.70;99.90;;;;;;4953826;28;20461;-73
2023/10/24 09:27:15;;;;;;;4.93;4.43;;;12.70;99.90;;;;;;4963595;28;20826;-75
2023/10/24 09:29:41;;;;;;;4.70;4.30;;;12.70;99.90;;;;;;4975990;28;20551;-74
2023/10/24 09:32:13;;;;;;;6.13;4.50;;;12.70;99.90;;;;;;4964475;28;20619;-74
2023/10/24 09:34:44;;;;;;;7.70;4.60;;;12.70;99.90;;;;;;4955893;28;20516;-74
2023/10/24 09:37:10;;;;;;;6.70;4.67;;;12.70;99.90;;;;;;4982472;28;20584;-73
2023/10/24 09:39:57;;;;;;;4.40;4.00;;;12.70;99.90;;;;;;4982903;28;20591;-73
2023/10/24 09:42:25;;;;;;;7.90;3.90;;;12.70;99.90;;;;;;4981751;28;20475;-74
2023/10/24 09:45:00;;;;;;;3.97;3.50;;;12.70;99.90;;;;;;4982796;28;20469;-74
2023/10/24 09:47:27;;;;;;;5.10;4.07;;;12.70;99.90;;;;;;4969428;28;20581;-74
2023/10/24 09:49:54;;;;;;;4.10;3.73;;;12.70;99.90;;;;;;4965945;28;20483;-74
2023/10/24 09:52:25;;;;;;;3.90;3.50;;;12.80;99.90;;;;;;4972398;28;20472;-73
2023/10/24 09:54:52;;;;;;;4.37;3.97;;;12.80;99.90;;;;;;4960284;28;20519;-74
2023/10/24 09:57:19;;;;;;;7.50;5.37;;;12.80;99.90;;;;;;4963814;28;20555;-74
2023/10/24 09:59:51;;;;;;;6.20;5.07;;;12.80;99.90;;;;;;4962843;28;20492;-74
2023/10/24 10:02:19;;;;;;;6.20;4.50;;;12.90;99.90;;;;;;4959446;28;20469;-74
2023/10/24 10:04:50;;;;;;;8.20;5.93;;;12.80;99.90;;;;;;4964010;28;20541;-73
2023/10/24 10:07:17;;;;;;;6.00;5.33;;;12.80;99.90;;;;;;4961943;28;20542;-75
2023/10/24 10:09:47;;;;;;;5.23;4.43;;;12.80;99.90;;;;;;4970618;28;20544;-74
2023/10/24 10:12:15;;;;;;;5.07;4.53;;;12.80;99.90;;;;;;4963139;28;20540;-73
2023/10/24 10:15:17;;;;;;;4.80;4.33;;;12.80;99.90;;;;;;4963464;28;20469;-72
2023/10/24 10:18:17;;;;;;;5.00;4.50;;;12.90;99.90;;;;;;4968444;28;20595;-73
2023/10/24 10:21:02;;;;;;;5.10;3.60;;;12.90;99.90;;;;;;4946018;28;21121;-74
2023/10/24 10:23:41;;;;;;;4.40;4.00;;;12.90;99.90;;;;;;4968304;28;20469;-73
2023/10/24 10:26:30;;;;;;;8.40;7.00;;;12.90;99.90;;;;;;4952025;28;20465;-74
2023/10/24 10:29:29;;;;;;;5.87;5.30;;;13.00;99.90;;;;;;4969362;28;20528;-74
2023/10/24 10:32:19;;;;;;;6.03;5.37;;;12.90;99.90;;;;;;4964319;28;20473;-73
2023/10/24 10:34:45;;;;;;;6.30;5.67;;;13.00;99.90;;;;;;4961906;28;20497;-72
2023/10/24 10:37:10;;;;;;;8.60;5.77;;;13.00;99.90;;;;;;4936856;28;20465;-74
2023/10/24 10:39:36;;;;;;;6.43;5.50;;;13.00;99.90;;;;;;4952878;28;20230;-73
2023/10/24 10:42:02;;;;;;;5.67;5.00;;;13.00;99.90;;;;;;4952320;28;20894;-73
2023/10/24 10:44:38;;;;;;;7.50;4.60;;;13.00;99.90;;;;;;4962338;28;20288;-74
2023/10/24 10:47:06;;;;;;;8.03;5.10;;;13.00;99.90;;;;;;4961760;28;20233;-73
2023/10/24 10:49:48;;;;;;;4.63;4.23;;;13.00;99.90;;;;;;4962666;28;20468;-73
2023/10/24 10:52:55;;;;;;;4.47;4.07;;;13.10;99.90;;;;;;4960147;28;20471;-74
2023/10/24 10:55:29;;;;;;;3.97;3.60;;;13.00;99.90;;;;;;4947789;28;20469;-73
2023/10/24 10:58:20;;;;;;;4.27;3.87;;;13.10;99.90;;;;;;4952966;28;20652;-74
2023/10/24 11:00:52;;;;;;;4.70;3.53;;;13.10;99.90;;;;;;4967116;28;20471;-74
2023/10/24 11:03:30;;;;;;;3.90;2.93;;;13.10;99.90;;;;;;4958981;28;20491;-73
2023/10/24 11:05:55;;;;;;;3.80;3.40;;;13.10;99.90;;;;;;4961112;28;20516;-73
2023/10/24 11:08:23;;;;;;;5.37;3.70;;;13.10;99.90;;;;;;4964001;28;20461;-73
2023/10/24 11:11:01;;;;;;;5.50;3.50;;;13.20;99.90;;;;;;4971060;28;20225;-74
2023/10/24 11:13:46;;;;;;;3.63;3.37;;;13.20;99.90;;;;;;4965392;28;20477;-73
2023/10/24 11:16:14;;;;;;;4.77;3.00;;;13.20;99.90;;;;;;4947291;28;20464;-74
2023/10/24 11:18:41;;;;;;;4.10;3.73;;;13.20;99.90;;;;;;4963408;28;20483;-74
2023/10/24 11:21:09;;;;;;;4.10;3.53;;;13.20;99.90;;;;;;4973455;28;20468;-74
2023/10/24 11:23:36;;;;;;;4.60;4.13;;;13.30;99.90;;;;;;4955867;28;20522;-74
2023/10/24 11:26:03;;;;;;;4.10;3.73;;;13.40;99.90;;;;;;4963830;28;20489;-73
2023/10/24 11:28:29;;;;;;;7.20;4.77;;;13.30;99.90;;;;;;4966325;28;20505;-73
2023/10/24 11:30:56;;;;;;;6.63;5.23;;;13.40;99.90;;;;;;4955626;28;20483;-74
2023/10/24 11:33:23;;;;;;;8.23;5.60;;;13.40;99.90;;;;;;4965455;28;20539;-74
2023/10/24 11:35:49;;;;;;;7.83;5.83;;;13.40;99.90;;;;;;4954193;28;21099;-73
2023/10/24 11:38:15;;;;;;;5.37;4.87;;;13.40;99.90;;;;;;4964814;28;20578;-74
2023/10/24 11:40:41;;;;;;;5.43;4.83;;;13.40;99.90;;;;;;4945697;28;21160;-73
2023/10/24 11:43:08;;;;;;;6.33;5.30;;;13.40;99.90;;;;;;4957952;28;20473;-74
2023/10/24 11:45:37;;;;;;;6.63;5.60;;;13.40;99.90;;;;;;4961909;28;20558;-73
2023/10/24 11:48:04;;;;;;;5.70;5.10;;;13.40;99.90;;;;;;4981711;28;20473;-72
2023/10/24 11:50:37;;;;;;;6.87;6.00;;;13.50;99.90;;;;;;4968736;28;20507;-73
2023/10/24 11:53:03;;;;;;;7.90;6.27;;;13.50;99.90;;;;;;4964713;28;21066;-74
2023/10/24 11:55:31;;;;;;;6.77;5.60;;;13.50;99.90;;;;;;4969428;28;20536;-73
2023/10/24 11:57:59;;;;;;;6.60;5.60;;;13.50;99.90;;;;;;4971169;28;20745;-74
2023/10/24 12:00:30;;;;;;;5.87;5.13;;;13.50;99.90;;;;;;4964904;28;20490;-74
2023/10/24 12:03:02;;;;;;;8.00;5.80;;;13.50;99.90;;;;;;4964002;28;20512;-73
2023/10/24 12:05:28;;;;;;;7.97;6.20;;;13.50;99.90;;;;;;4970766;28;20489;-73
2023/10/24 12:07:58;;;;;;;6.63;5.87;;;13.60;99.90;;;;;;4951545;28;20476;-75
2023/10/24 12:10:23;;;;;;;8.70;5.30;;;13.60;99.90;;;;;;4960814;28;20504;-75
2023/10/24 12:12:49;;;;;;;7.10;5.73;;;13.60;99.90;;;;;;4963552;28;20469;-74
2023/10/24 12:15:18;;;;;;;8.53;5.97;;;13.60;99.90;;;;;;4970873;28;20384;-74
2023/10/24 12:17:47;;;;;;;5.70;5.20;;;13.60;99.90;;;;;;4962177;28;20235;-75
2023/10/24 12:20:13;;;;;;;9.40;5.90;;;13.60;99.90;;;;;;4972390;28;20465;-74
2023/10/24 12:22:38;;;;;;;5.93;5.33;;;13.70;99.90;;;;;;4964500;28;21002;-72
2023/10/24 12:25:05;;;;;;;8.10;6.17;;;13.70;99.90;;;;;;4940543;28;20348;-73
2023/10/24 12:27:33;;;;;;;6.60;5.87;;;13.80;99.90;;;;;;4946915;28;20222;-74
2023/10/24 12:29:58;;;;;;;6.80;6.10;;;13.90;99.90;;;;;;4967320;28;20476;-73
2023/10/24 12:32:24;;;;;;;6.40;5.67;;;13.90;99.90;;;;;;4947612;28;21078;-74
2023/10/24 12:34:50;;;;;;;8.27;7.20;;;13.90;99.90;;;;;;4962677;28;20232;-74
2023/10/24 12:37:15;;;;;;;9.00;6.80;;;13.90;99.90;;;;;;4946388;28;20218;-73
2023/10/24 12:39:41;;;;;;;7.43;6.17;;;13.90;99.90;;;;;;4976977;28;20230;-74
2023/10/24 12:42:07;;;;;;;8.60;6.70;;;13.90;99.90;;;;;;4971482;28;20226;-75
2023/10/24 12:44:32;;;;;;;8.73;6.87;;;13.90;99.90;;;;;;4978970;28;20221;-74
2023/10/24 12:46:58;;;;;;;7.00;5.70;;;13.90;99.90;;;;;;4962045;28;20273;-72